Chestnut Hill, Connecticut
Current Conditions -  °F | °C
As of 6:45 AM on Friday 31 Oct 2014 (Local Time) from KIJD Reporting Station
Scattered Clouds Scattered Clouds  
Wind Chill: 33°   Ceiling: Unl
Heat Index: 33°   Visibility: 10mi
Dew Point: 31°   Wind: 0mph
Humidity: 92%   Direction: NA
Pressure: 30.02"   Gusts: NA
Location:  41.7073°N, 72.2065°W
Report Text: KIJD 311045Z AUTO 00000KT 10SM SCT001 01/M01 A3002 RMK AO2 T00061006
Loading
Personal Weather Stations






























Interactive Weather Map
Tropical Storm Tracking
New forecast layout! Learn more

10-Day Weather Forecast

Advertisements
Track Severe Weather on mobile